Time;durP1;ratioP1;P1;durP2;ratioP2;P2;SDS_P1;SDS_P2;PMS_P1;PMS_P2;Temp;Humidity;BMP_temperature;BMP_pressure;BME280_temperature;BME280_humidity;BME280_pressure;Samples;Min_cycle;Max_cycle;Signal;HPM_P1;HPM_P2
2023/12/29 00:00:38;;;;;;;37.10;26.10;;;9.30;99.90;;;;;;5120584;27;20035;-76
2023/12/29 00:03:04;;;;;;;21.80;17.23;;;9.30;99.90;;;;;;5121017;27;20019;-76
2023/12/29 00:05:30;;;;;;;26.73;20.55;;;9.20;99.90;;;;;;5139144;27;20023;-77
2023/12/29 00:07:56;;;;;;;36.13;24.80;;;9.20;99.90;;;;;;5139256;27;20400;-77
2023/12/29 00:10:21;;;;;;;20.75;15.52;;;9.20;99.90;;;;;;5138683;27;20069;-77
2023/12/29 00:12:47;;;;;;;23.00;16.92;;;9.20;99.90;;;;;;5139260;27;20057;-76
2023/12/29 00:15:13;;;;;;;34.63;25.73;;;9.20;99.90;;;;;;5138830;27;20031;-77
2023/12/29 00:17:40;;;;;;;25.35;20.25;;;9.20;99.90;;;;;;5138994;27;20031;-76
2023/12/29 00:20:08;;;;;;;20.77;14.57;;;9.10;99.90;;;;;;5138934;27;20023;-77
2023/12/29 00:22:34;;;;;;;24.50;17.73;;;9.10;99.90;;;;;;5138913;27;20018;-77
2023/12/29 00:25:00;;;;;;;32.83;23.50;;;9.10;99.90;;;;;;5120263;27;20110;-76
2023/12/29 00:27:25;;;;;;;25.30;19.30;;;9.10;99.90;;;;;;5138687;27;20057;-77
2023/12/29 00:29:51;;;;;;;27.73;17.88;;;9.00;99.90;;;;;;5138542;27;20059;-76
2023/12/29 00:32:17;;;;;;;34.05;25.30;;;9.00;99.90;;;;;;5138688;27;20246;-76
2023/12/29 00:34:42;;;;;;;26.60;19.10;;;9.00;99.90;;;;;;5120025;27;20023;-77
2023/12/29 00:37:08;;;;;;;28.02;18.52;;;8.90;99.90;;;;;;5119850;27;20080;-77
2023/12/29 00:39:38;;;;;;;25.38;17.90;;;8.90;99.90;;;;;;5120282;27;20462;-76
2023/12/29 00:42:06;;;;;;;59.25;40.25;;;8.90;99.90;;;;;;5138665;27;20022;-77
2023/12/29 00:44:31;;;;;;;36.75;26.17;;;8.90;99.90;;;;;;5119574;27;20027;-76
2023/12/29 00:46:57;;;;;;;63.97;35.50;;;9.00;99.90;;;;;;5116607;27;20030;-77
2023/12/29 00:49:23;;;;;;;79.43;45.05;;;8.90;99.90;;;;;;5136183;27;20023;-76
2023/12/29 00:51:48;;;;;;;56.20;32.13;;;8.80;99.90;;;;;;5138329;27;20474;-76
2023/12/29 00:54:15;;;;;;;57.85;27.35;;;8.70;99.90;;;;;;5120379;27;20050;-76
2023/12/29 00:56:40;;;;;;;39.72;21.67;;;8.70;99.90;;;;;;5116449;28;20016;-76
2023/12/29 00:59:07;;;;;;;59.40;31.13;;;8.60;99.90;;;;;;5135755;27;20425;-76
2023/12/29 01:01:35;;;;;;;231.73;108.95;;;8.60;99.90;;;;;;5138433;27;20019;-77
2023/12/29 01:04:01;;;;;;;116.90;55.92;;;8.50;99.90;;;;;;5137992;27;20035;-77
2023/12/29 01:06:27;;;;;;;349.10;168.63;;;8.50;99.90;;;;;;5119478;27;20046;-77
2023/12/29 01:08:53;;;;;;;331.20;158.25;;;8.40;99.90;;;;;;5137971;27;20506;-77
2023/12/29 01:11:18;;;;;;;74.18;41.85;;;8.30;99.90;;;;;;5138111;27;20019;-77
2023/12/29 01:13:44;;;;;;;215.00;114.40;;;8.20;99.90;;;;;;5119276;27;20038;-76
2023/12/29 01:16:10;;;;;;;57.85;36.00;;;8.10;99.90;;;;;;5137699;27;20050;-77
2023/12/29 01:18:35;;;;;;;192.32;105.80;;;8.00;99.90;;;;;;5137518;27;20059;-77
2023/12/29 01:21:01;;;;;;;84.10;51.08;;;7.90;99.90;;;;;;5137343;27;20475;-77
2023/12/29 01:23:27;;;;;;;177.15;102.07;;;7.90;99.90;;;;;;5118873;27;20083;-77
2023/12/29 01:25:52;;;;;;;81.13;50.03;;;7.80;99.90;;;;;;5137737;27;20034;-77
2023/12/29 01:28:18;;;;;;;97.85;58.70;;;7.70;99.90;;;;;;5137564;27;20110;-77
2023/12/29 01:30:43;;;;;;;39.15;25.52;;;7.60;99.90;;;;;;5137392;27;20023;-77
2023/12/29 01:33:09;;;;;;;37.00;22.92;;;7.60;99.90;;;;;;5137438;27;20372;-76
2023/12/29 01:35:35;;;;;;;31.08;22.27;;;7.70;99.90;;;;;;5119137;27;20019;-76
2023/12/29 01:38:03;;;;;;;63.70;36.33;;;7.70;99.90;;;;;;5137115;27;20380;-77
2023/12/29 01:40:28;;;;;;;28.45;20.73;;;7.60;99.90;;;;;;5137524;27;20019;-77
2023/12/29 01:42:54;;;;;;;30.42;21.80;;;7.60;99.90;;;;;;5135952;27;20075;-76
2023/12/29 01:45:25;;;;;;;27.55;19.15;;;7.60;99.90;;;;;;5118485;27;20102;-77
2023/12/29 01:47:51;;;;;;;24.58;18.33;;;7.50;99.90;;;;;;5118752;27;20039;-77
2023/12/29 01:50:22;;;;;;;26.75;18.17;;;7.40;99.90;;;;;;5118706;27;20019;-77
2023/12/29 01:52:50;;;;;;;22.65;17.35;;;7.40;99.90;;;;;;5137050;27;20760;-77
2023/12/29 01:55:19;;;;;;;26.58;19.67;;;7.30;99.90;;;;;;5111857;28;20048;-77
2023/12/29 01:57:46;;;;;;;22.45;17.85;;;7.20;99.90;;;;;;5094443;28;20024;-77
2023/12/29 02:00:13;;;;;;;29.05;18.67;;;7.10;99.90;;;;;;5096135;28;20020;-78
2023/12/29 02:02:39;;;;;;;26.33;19.17;;;7.10;99.90;;;;;;5094603;28;20020;-77
2023/12/29 02:05:05;;;;;;;24.52;20.45;;;7.00;99.90;;;;;;5096471;28;20400;-77
2023/12/29 02:07:32;;;;;;;26.65;19.88;;;6.90;99.90;;;;;;5095661;28;20024;-77
2023/12/29 02:09:59;;;;;;;25.10;19.00;;;6.80;99.90;;;;;;5094771;28;20098;-77
2023/12/29 02:12:25;;;;;;;27.92;20.38;;;6.80;99.90;;;;;;5094318;28;20197;-77
2023/12/29 02:14:51;;;;;;;27.60;19.55;;;6.70;99.90;;;;;;5095614;28;20048;-77
2023/12/29 02:17:25;;;;;;;29.48;20.88;;;6.70;99.90;;;;;;5095901;28;20030;-77
2023/12/29 02:19:52;;;;;;;37.63;25.05;;;6.70;99.90;;;;;;5095681;28;20023;-77
2023/12/29 02:22:18;;;;;;;30.58;21.02;;;6.70;99.90;;;;;;5094368;28;20023;-77
2023/12/29 02:24:49;;;;;;;34.10;23.55;;;6.70;99.90;;;;;;5095601;28;20472;-77
2023/12/29 02:27:27;;;;;;;34.97;23.67;;;6.70;99.90;;;;;;5095789;28;21333;-77
2023/12/29 02:30:35;;;;;;;32.38;23.17;;;6.70;99.90;;;;;;5095390;28;20111;-77
2023/12/29 02:33:04;;;;;;;37.00;25.85;;;6.70;99.90;;;;;;5093612;28;20051;-78
2023/12/29 02:35:35;;;;;;;41.40;26.40;;;6.70;99.90;;;;;;5091124;28;20040;-77
2023/12/29 02:38:01;;;;;;;35.83;26.88;;;6.70;99.90;;;;;;5092871;28;20028;-77
2023/12/29 02:40:27;;;;;;;44.33;25.77;;;6.70;99.90;;;;;;5094377;28;20030;-77
2023/12/29 02:42:53;;;;;;;42.25;26.85;;;6.70;99.90;;;;;;5095435;28;20011;-77
2023/12/29 02:45:19;;;;;;;39.33;26.15;;;6.70;99.90;;;;;;5094056;28;20557;-77
2023/12/29 02:47:45;;;;;;;39.17;28.70;;;6.60;99.90;;;;;;5092791;28;20586;-77
2023/12/29 02:50:10;;;;;;;38.63;25.98;;;6.60;99.90;;;;;;5095524;28;20515;-77
2023/12/29 02:52:37;;;;;;;46.08;28.80;;;6.60;99.90;;;;;;5095171;28;20028;-77
2023/12/29 02:55:03;;;;;;;40.75;27.10;;;6.60;99.90;;;;;;5106866;28;20112;-78
2023/12/29 02:57:29;;;;;;;39.38;25.42;;;6.60;99.90;;;;;;5115480;28;20128;-77
2023/12/29 02:59:55;;;;;;;40.15;23.65;;;6.60;99.90;;;;;;5111017;28;20604;-77
2023/12/29 03:02:21;;;;;;;41.55;23.60;;;6.50;99.90;;;;;;5112861;28;20866;-77
2023/12/29 03:04:47;;;;;;;37.92;24.92;;;6.50;99.90;;;;;;5114937;28;20483;-77
2023/12/29 03:07:13;;;;;;;38.30;24.10;;;6.50;99.90;;;;;;5115201;28;20027;-77
2023/12/29 03:09:38;;;;;;;42.85;25.25;;;6.40;99.90;;;;;;5115541;28;20027;-77
2023/12/29 03:12:04;;;;;;;40.45;26.30;;;6.30;99.90;;;;;;5114517;28;20032;-77
2023/12/29 03:14:30;;;;;;;41.78;26.63;;;6.30;99.90;;;;;;5113917;28;20027;-77
2023/12/29 03:16:56;;;;;;;40.42;26.40;;;6.30;99.90;;;;;;5115527;28;20039;-77
2023/12/29 03:19:21;;;;;;;39.60;28.05;;;6.30;99.90;;;;;;5115528;28;20484;-77
2023/12/29 03:21:47;;;;;;;45.60;25.73;;;6.30;99.90;;;;;;5114071;28;20535;-77
2023/12/29 03:24:13;;;;;;;36.42;24.35;;;6.30;99.90;;;;;;5115417;28;20020;-77
2023/12/29 03:26:38;;;;;;;42.72;25.27;;;6.30;99.90;;;;;;5115629;28;20031;-76
2023/12/29 03:29:04;;;;;;;36.83;25.05;;;6.30;99.90;;;;;;5115230;28;20016;-76
2023/12/29 03:31:30;;;;;;;40.83;26.33;;;6.20;99.90;;;;;;5110915;28;20030;-77
2023/12/29 03:33:55;;;;;;;42.78;25.13;;;6.20;99.90;;;;;;5109362;28;20389;-77
2023/12/29 03:36:21;;;;;;;41.25;27.10;;;6.20;99.90;;;;;;5110851;28;20054;-77
2023/12/29 03:38:46;;;;;;;42.80;24.98;;;6.20;99.90;;;;;;5115336;28;20026;-77
2023/12/29 03:41:12;;;;;;;40.85;25.63;;;6.20;99.90;;;;;;5115433;28;20096;-77
2023/12/29 03:43:38;;;;;;;40.00;24.88;;;6.20;99.90;;;;;;5115261;28;20016;-77
2023/12/29 03:46:14;;;;;;;43.47;26.58;;;6.10;99.90;;;;;;5116072;28;20058;-77
2023/12/29 03:48:40;;;;;;;47.38;27.02;;;6.10;99.90;;;;;;5114096;28;20054;-77
2023/12/29 03:51:05;;;;;;;42.35;26.70;;;6.10;99.90;;;;;;5114109;28;20024;-77
2023/12/29 03:53:31;;;;;;;39.42;27.15;;;6.10;99.90;;;;;;5122470;27;20100;-77
2023/12/29 03:55:56;;;;;;;38.85;25.20;;;6.10;99.90;;;;;;5118846;27;20047;-77
2023/12/29 03:58:22;;;;;;;47.88;28.70;;;6.10;99.90;;;;;;5139572;27;20031;-77
2023/12/29 04:00:48;;;;;;;44.35;28.67;;;6.10;99.90;;;;;;5138645;27;20022;-77
2023/12/29 04:03:13;;;;;;;50.25;28.17;;;6.20;99.90;;;;;;5121017;27;20789;-77
2023/12/29 04:05:39;;;;;;;51.60;31.20;;;6.20;99.90;;;;;;5119892;27;20019;-77
2023/12/29 04:08:05;;;;;;;49.03;29.55;;;6.20;99.90;;;;;;5120057;27;20019;-77
2023/12/29 04:10:31;;;;;;;49.08;29.60;;;6.20;99.90;;;;;;5120487;27;20050;-77
2023/12/29 04:12:56;;;;;;;46.28;29.63;;;6.20;99.90;;;;;;5139102;27;20498;-77
2023/12/29 04:15:22;;;;;;;47.85;30.50;;;6.20;99.90;;;;;;5138845;27;20027;-77
2023/12/29 04:17:47;;;;;;;53.33;30.05;;;6.20;99.90;;;;;;5138762;27;20074;-77
2023/12/29 04:20:13;;;;;;;47.22;28.27;;;6.20;99.90;;;;;;5138974;27;20020;-75
2023/12/29 04:22:39;;;;;;;58.78;30.25;;;6.20;99.90;;;;;;5138957;27;20027;-76
2023/12/29 04:25:05;;;;;;;45.92;29.27;;;6.20;99.90;;;;;;5120471;27;20031;-75
2023/12/29 04:27:30;;;;;;;46.35;27.98;;;6.20;99.90;;;;;;5116774;28;20027;-75
2023/12/29 04:29:56;;;;;;;53.95;29.85;;;6.10;99.90;;;;;;5135183;27;20034;-75
2023/12/29 04:32:22;;;;;;;55.63;30.05;;;6.20;99.90;;;;;;5120058;27;20030;-75
2023/12/29 04:34:47;;;;;;;55.70;32.45;;;6.10;99.90;;;;;;5120231;27;20038;-75
2023/12/29 04:37:13;;;;;;;49.47;29.90;;;6.10;99.90;;;;;;5119848;27;20113;-76
2023/12/29 04:39:39;;;;;;;56.33;31.35;;;6.20;99.90;;;;;;5120278;27;20083;-76
2023/12/29 04:42:04;;;;;;;64.15;32.92;;;6.20;99.90;;;;;;5120041;27;20562;-76
2023/12/29 04:44:30;;;;;;;56.63;31.73;;;6.20;99.90;;;;;;5116352;28;20020;-75
2023/12/29 04:46:55;;;;;;;63.58;34.38;;;6.20;99.90;;;;;;5131690;27;20023;-75
2023/12/29 04:49:21;;;;;;;57.40;32.75;;;6.20;99.90;;;;;;5134855;27;20023;-75
2023/12/29 04:51:48;;;;;;;60.38;34.45;;;6.20;99.90;;;;;;5138256;27;20496;-75
2023/12/29 04:54:14;;;;;;;63.80;33.25;;;6.30;99.90;;;;;;5137972;27;20031;-75
2023/12/29 04:56:40;;;;;;;57.75;32.15;;;6.30;99.90;;;;;;5137104;27;20035;-76
2023/12/29 04:59:05;;;;;;;59.28;32.70;;;6.30;99.90;;;;;;5119312;27;20027;-76
2023/12/29 05:01:31;;;;;;;60.70;34.53;;;6.40;99.90;;;;;;5119866;27;20399;-76
2023/12/29 05:03:56;;;;;;;55.10;32.83;;;6.40;99.90;;;;;;5119693;27;20023;-76
2023/12/29 05:06:22;;;;;;;62.83;34.47;;;6.40;99.90;;;;;;5138057;27;20062;-76
2023/12/29 05:08:48;;;;;;;56.17;32.88;;;6.40;99.90;;;;;;5137872;27;20106;-76
2023/12/29 05:11:14;;;;;;;59.25;32.40;;;6.50;99.90;;;;;;5119402;27;20027;-75
2023/12/29 05:13:39;;;;;;;50.60;30.95;;;6.50;99.90;;;;;;5119338;27;20080;-76
2023/12/29 05:16:05;;;;;;;56.92;32.03;;;6.70;99.90;;;;;;5137967;27;20082;-76
2023/12/29 05:18:31;;;;;;;58.33;30.20;;;6.80;99.90;;;;;;5137551;27;20031;-75
2023/12/29 05:20:57;;;;;;;66.50;32.10;;;7.00;99.90;;;;;;5137841;27;20794;-74
2023/12/29 05:23:22;;;;;;;54.38;33.65;;;7.10;99.90;;;;;;5137430;27;20030;-75
2023/12/29 05:25:48;;;;;;;91.40;47.13;;;7.30;99.90;;;;;;5137705;27;20402;-76
2023/12/29 05:28:14;;;;;;;70.95;38.03;;;7.40;99.90;;;;;;5137553;27;20019;-75
2023/12/29 05:30:39;;;;;;;56.65;31.88;;;7.50;99.90;;;;;;5118804;27;20506;-76
2023/12/29 05:33:05;;;;;;;56.88;32.30;;;7.70;99.90;;;;;;5118555;27;20019;-76
2023/12/29 05:35:30;;;;;;;58.63;32.78;;;7.90;99.90;;;;;;5137679;27;20027;-76
2023/12/29 05:37:56;;;;;;;50.13;28.40;;;8.00;99.90;;;;;;5118733;27;20549;-76
2023/12/29 05:40:22;;;;;;;43.63;26.80;;;8.20;99.90;;;;;;5137675;27;20467;-76
2023/12/29 05:42:47;;;;;;;43.25;27.98;;;8.40;99.90;;;;;;5118983;27;20023;-76
2023/12/29 05:45:16;;;;;;;42.05;26.70;;;8.40;99.90;;;;;;5137207;27;20023;-75
2023/12/29 05:47:42;;;;;;;41.88;26.80;;;8.50;99.90;;;;;;5137170;27;20015;-75
2023/12/29 05:50:08;;;;;;;46.08;28.15;;;8.50;99.90;;;;;;5137290;27;20046;-76
2023/12/29 05:52:33;;;;;;;39.53;22.95;;;8.60;99.90;;;;;;5118502;27;20034;-77
2023/12/29 05:54:59;;;;;;;40.47;25.60;;;8.60;99.90;;;;;;5137290;27;20047;-76
2023/12/29 05:57:24;;;;;;;40.22;24.20;;;8.70;99.90;;;;;;5136823;27;20030;-76
2023/12/29 05:59:50;;;;;;;41.70;25.13;;;8.70;99.90;;;;;;5137011;27;20031;-75
2023/12/29 06:02:16;;;;;;;38.55;24.52;;;8.70;99.90;;;;;;5137064;27;20015;-81
2023/12/29 06:04:41;;;;;;;42.00;25.45;;;8.70;99.90;;;;;;5137160;27;20547;-76
2023/12/29 06:07:07;;;;;;;47.13;25.40;;;8.70;99.90;;;;;;5136438;27;20076;-75
2023/12/29 06:09:32;;;;;;;39.28;23.75;;;8.80;99.90;;;;;;5137089;27;20031;-78
2023/12/29 06:11:58;;;;;;;42.40;24.08;;;8.80;99.90;;;;;;5136909;27;20054;-76
2023/12/29 06:14:24;;;;;;;37.67;23.38;;;8.90;99.90;;;;;;5114763;28;20050;-78
2023/12/29 06:16:49;;;;;;;38.80;24.17;;;8.90;99.90;;;;;;5118046;27;20483;-76
2023/12/29 06:19:15;;;;;;;39.78;26.77;;;8.90;99.90;;;;;;5136618;27;20035;-76
2023/12/29 06:21:43;;;;;;;37.03;22.98;;;8.80;99.90;;;;;;5136474;27;20023;-76
2023/12/29 06:24:09;;;;;;;32.45;23.73;;;8.80;99.90;;;;;;5136805;27;20372;-76
2023/12/29 06:26:35;;;;;;;33.03;22.63;;;8.90;99.90;;;;;;5130150;27;20061;-77
2023/12/29 06:29:00;;;;;;;37.13;23.75;;;8.90;99.90;;;;;;5127771;27;20106;-76
2023/12/29 06:31:26;;;;;;;40.22;22.67;;;8.90;99.90;;;;;;5135628;27;20020;-75
2023/12/29 06:33:52;;;;;;;28.90;18.00;;;8.90;99.90;;;;;;5117238;27;20030;-78
2023/12/29 06:36:17;;;;;;;39.85;22.52;;;9.00;99.90;;;;;;5136339;27;20019;-75
2023/12/29 06:38:48;;;;;;;31.67;20.60;;;9.00;99.90;;;;;;5136481;27;20050;-75
2023/12/29 06:41:14;;;;;;;25.50;18.40;;;9.00;99.90;;;;;;5117903;28;20046;-75
2023/12/29 06:43:39;;;;;;;32.03;21.20;;;9.00;99.90;;;;;;5136490;28;20418;-75
2023/12/29 06:46:06;;;;;;;24.55;19.80;;;9.00;99.90;;;;;;5117626;28;20063;-76
2023/12/29 06:48:31;;;;;;;29.83;20.67;;;9.00;99.90;;;;;;5114625;28;20032;-75
2023/12/29 06:50:57;;;;;;;25.27;18.65;;;9.00;99.90;;;;;;5112243;28;20538;-75
2023/12/29 06:53:23;;;;;;;25.63;18.98;;;9.10;99.90;;;;;;5126405;28;20083;-75
2023/12/29 06:55:48;;;;;;;27.70;19.00;;;9.10;99.90;;;;;;5117652;28;20083;-76
2023/12/29 06:58:14;;;;;;;28.63;20.58;;;9.10;99.90;;;;;;5114334;28;20039;-75
2023/12/29 07:00:39;;;;;;;28.13;20.08;;;9.10;99.90;;;;;;5114458;28;20011;-75
2023/12/29 07:03:05;;;;;;;29.50;18.30;;;9.10;99.90;;;;;;5117936;28;20495;-76
2023/12/29 07:05:32;;;;;;;25.50;19.10;;;9.10;99.90;;;;;;5136281;28;20031;-75
2023/12/29 07:07:57;;;;;;;33.35;21.05;;;9.10;99.90;;;;;;5117954;28;20037;-75
2023/12/29 07:10:23;;;;;;;34.55;19.58;;;9.10;99.90;;;;;;5117524;28;20106;-75
2023/12/29 07:12:49;;;;;;;31.38;20.48;;;9.10;99.90;;;;;;5136289;28;20038;-76
2023/12/29 07:15:14;;;;;;;24.98;20.27;;;9.10;99.90;;;;;;5113943;28;20051;-75
2023/12/29 07:17:40;;;;;;;32.22;21.38;;;9.10;99.90;;;;;;5126099;28;20115;-76
2023/12/29 07:20:06;;;;;;;24.77;19.65;;;9.00;99.90;;;;;;5119148;27;20011;-76
2023/12/29 07:22:32;;;;;;;25.35;18.80;;;9.00;99.90;;;;;;5140212;27;20079;-76
2023/12/29 07:24:58;;;;;;;25.98;18.13;;;8.90;99.90;;;;;;5140189;27;20076;-75
2023/12/29 07:27:24;;;;;;;22.98;16.58;;;8.80;99.90;;;;;;5118370;28;20028;-76
2023/12/29 07:29:49;;;;;;;29.30;19.25;;;8.80;99.90;;;;;;5118432;27;20490;-76
2023/12/29 07:32:15;;;;;;;20.48;16.50;;;8.70;99.90;;;;;;5121601;27;20486;-76
2023/12/29 07:34:40;;;;;;;24.75;15.80;;;8.70;99.90;;;;;;5121385;27;20019;-76
2023/12/29 07:37:06;;;;;;;20.55;17.35;;;8.70;99.90;;;;;;5140011;27;20035;-80
2023/12/29 07:39:32;;;;;;;23.35;18.77;;;8.60;99.90;;;;;;5139655;27;20015;-80
2023/12/29 07:41:57;;;;;;;30.23;19.00;;;8.70;99.90;;;;;;5118936;28;20038;-83
2023/12/29 07:44:23;;;;;;;25.92;19.70;;;8.70;99.90;;;;;;5136410;27;20012;-81
2023/12/29 07:46:49;;;;;;;24.40;19.65;;;8.80;99.90;;;;;;5109088;28;20028;-82
2023/12/29 07:49:14;;;;;;;35.33;21.35;;;8.80;99.90;;;;;;5116810;27;20172;-81
2023/12/29 07:51:42;;;;;;;63.05;35.10;;;8.80;99.90;;;;;;5113625;27;20302;-82
2023/12/29 07:54:08;;;;;;;96.82;49.55;;;8.80;99.90;;;;;;5107218;27;20051;-82
2023/12/29 07:56:35;;;;;;;46.30;29.02;;;8.70;99.90;;;;;;5116047;27;20031;-83
2023/12/29 07:59:02;;;;;;;42.10;25.83;;;8.70;99.90;;;;;;5133646;27;20046;-80
2023/12/29 08:01:28;;;;;;;49.65;31.75;;;8.60;99.90;;;;;;5116845;27;20020;-84
2023/12/29 08:03:55;;;;;;;71.53;43.17;;;8.60;99.90;;;;;;5134690;27;20049;-84
2023/12/29 08:06:20;;;;;;;212.52;114.25;;;8.50;99.90;;;;;;5105888;27;20033;-83
2023/12/29 08:08:46;;;;;;;112.38;63.47;;;8.50;99.90;;;;;;5124461;27;20031;-82
2023/12/29 08:11:18;;;;;;;49.90;35.33;;;8.50;99.90;;;;;;5102718;28;20028;-84
2023/12/29 08:13:46;;;;;;;54.38;36.28;;;8.40;99.90;;;;;;5135203;27;20505;-83
2023/12/29 08:16:12;;;;;;;47.28;31.45;;;8.40;99.90;;;;;;5115148;27;20034;-84
2023/12/29 08:18:37;;;;;;;65.05;49.13;;;8.40;99.90;;;;;;5125772;27;20067;-84
2023/12/29 08:21:03;;;;;;;77.95;56.28;;;8.40;99.90;;;;;;5105342;28;20115;-84
2023/12/29 08:23:29;;;;;;;68.30;46.85;;;8.40;99.90;;;;;;5110693;28;20207;-84
2023/12/29 08:25:57;;;;;;;67.88;47.22;;;8.40;99.90;;;;;;5106800;27;20027;-84
2023/12/29 08:28:23;;;;;;;73.63;52.70;;;8.40;99.90;;;;;;5111298;28;20031;-84
2023/12/29 08:30:48;;;;;;;50.45;36.45;;;8.50;99.90;;;;;;5107120;27;20419;-84
2023/12/29 08:33:17;;;;;;;43.60;30.52;;;8.50;99.90;;;;;;5132056;27;20478;-84
2023/12/29 08:35:45;;;;;;;39.55;30.33;;;8.60;99.90;;;;;;5110906;28;20567;-86
2023/12/29 08:38:12;;;;;;;37.53;26.67;;;8.60;99.90;;;;;;5111028;28;20038;-84
2023/12/29 08:40:38;;;;;;;38.72;27.45;;;8.70;99.90;;;;;;5095158;28;20035;-84
2023/12/29 08:43:04;;;;;;;33.50;25.65;;;8.80;99.90;;;;;;5114140;27;20891;-84
2023/12/29 08:45:29;;;;;;;51.92;36.10;;;8.80;99.90;;;;;;5133041;27;20034;-84
2023/12/29 08:47:55;;;;;;;50.55;36.78;;;8.90;99.90;;;;;;5115692;27;20091;-83
2023/12/29 08:50:21;;;;;;;40.63;28.15;;;8.90;99.90;;;;;;5122771;27;20566;-84
2023/12/29 08:52:47;;;;;;;38.72;30.83;;;8.90;99.90;;;;;;5114180;27;20123;-87
2023/12/29 08:55:13;;;;;;;39.22;31.17;;;8.90;99.90;;;;;;5106827;28;20078;-88
2023/12/29 08:57:38;;;;;;;44.08;32.63;;;9.00;99.90;;;;;;5112049;28;20038;-84
2023/12/29 09:00:05;;;;;;;43.45;30.27;;;9.00;99.90;;;;;;5106671;27;20027;-84
2023/12/29 09:02:30;;;;;;;39.65;28.38;;;9.10;99.90;;;;;;5111009;28;20464;-84
2023/12/29 09:04:56;;;;;;;38.85;27.33;;;9.10;99.90;;;;;;5124967;27;20058;-86
2023/12/29 09:07:22;;;;;;;43.80;29.15;;;9.20;99.90;;;;;;5109887;28;20019;-83
2023/12/29 09:09:48;;;;;;;34.30;26.30;;;9.30;99.90;;;;;;5123660;27;20114;-83
2023/12/29 09:12:13;;;;;;;38.08;27.73;;;9.40;99.90;;;;;;5128299;27;20042;-83
2023/12/29 09:14:39;;;;;;;33.35;26.63;;;9.40;99.90;;;;;;5109487;27;20038;-83
2023/12/29 09:17:05;;;;;;;41.10;27.13;;;9.50;99.90;;;;;;5127745;27;20487;-83
2023/12/29 09:19:30;;;;;;;33.65;26.75;;;9.60;99.90;;;;;;5109044;27;20023;-84
2023/12/29 09:21:56;;;;;;;30.17;24.95;;;9.70;99.90;;;;;;5112682;27;20072;-84
2023/12/29 09:24:22;;;;;;;34.95;26.73;;;9.70;99.90;;;;;;5120339;27;20392;-84
2023/12/29 09:26:47;;;;;;;34.28;26.50;;;9.80;99.90;;;;;;5118869;27;20038;-84
2023/12/29 09:29:13;;;;;;;27.77;23.27;;;9.80;99.90;;;;;;5131915;27;20047;-84
2023/12/29 09:31:39;;;;;;;32.78;24.17;;;9.90;99.90;;;;;;5131045;27;20075;-83
2023/12/29 09:34:04;;;;;;;26.70;23.38;;;9.90;99.90;;;;;;5132709;27;20035;-87
2023/12/29 09:36:30;;;;;;;35.20;23.60;;;9.90;99.90;;;;;;5108614;28;20031;-83
2023/12/29 09:38:56;;;;;;;29.70;21.00;;;9.90;99.90;;;;;;5110065;27;20030;-83
2023/12/29 09:41:25;;;;;;;30.00;20.70;;;9.90;99.90;;;;;;5136118;27;20026;-84
2023/12/29 09:43:51;;;;;;;31.73;21.30;;;10.00;99.90;;;;;;5117379;27;20429;-84
2023/12/29 09:46:20;;;;;;;24.63;19.38;;;10.00;99.90;;;;;;5137394;27;20019;-83
2023/12/29 09:48:47;;;;;;;24.25;20.23;;;10.00;99.90;;;;;;5138053;27;20031;-85
2023/12/29 09:51:16;;;;;;;26.23;19.38;;;10.10;99.90;;;;;;5137568;27;20038;-84
2023/12/29 09:53:42;;;;;;;21.73;17.92;;;10.10;99.90;;;;;;5118953;27;20037;-82
2023/12/29 09:56:09;;;;;;;23.92;17.35;;;10.10;99.90;;;;;;5119197;27;20034;-87
2023/12/29 09:58:37;;;;;;;18.55;16.42;;;10.20;99.90;;;;;;5116747;27;20122;-81
2023/12/29 10:01:07;;;;;;;20.67;17.80;;;10.20;99.90;;;;;;5137578;27;20022;-83
2023/12/29 10:03:33;;;;;;;20.60;17.35;;;10.30;99.90;;;;;;5118990;27;20027;-82
2023/12/29 10:06:00;;;;;;;31.70;17.58;;;10.30;99.90;;;;;;5116313;28;20463;-83
2023/12/29 10:08:28;;;;;;;19.60;15.68;;;10.40;99.90;;;;;;5113330;27;20032;-83
2023/12/29 10:11:00;;;;;;;22.38;16.25;;;10.40;99.90;;;;;;5126336;27;20046;-84
2023/12/29 10:13:27;;;;;;;20.70;15.57;;;10.40;99.90;;;;;;5137969;27;20467;-83
2023/12/29 10:16:15;;;;;;;21.33;16.75;;;10.50;99.90;;;;;;5118374;27;20050;-81
2023/12/29 10:19:00;;;;;;;21.35;17.63;;;10.50;99.90;;;;;;5132396;27;20064;-83
2023/12/29 10:21:52;;;;;;;28.42;19.60;;;10.60;99.90;;;;;;5115126;28;20026;-81
2023/12/29 10:24:22;;;;;;;29.92;18.45;;;10.60;99.90;;;;;;5117985;27;20019;-85
2023/12/29 10:26:49;;;;;;;29.25;18.55;;;10.70;99.90;;;;;;5117988;27;20023;-84
2023/12/29 10:29:15;;;;;;;24.00;17.10;;;10.70;99.90;;;;;;5136422;27;20491;-88
2023/12/29 10:31:40;;;;;;;24.30;17.60;;;10.70;99.90;;;;;;5117034;27;20087;-85
2023/12/29 10:34:29;;;;;;;27.02;16.50;;;10.80;99.90;;;;;;5136861;27;20027;-86
2023/12/29 10:36:59;;;;;;;25.83;18.05;;;10.90;99.90;;;;;;5136660;27;20027;-85
2023/12/29 10:39:25;;;;;;;22.47;17.87;;;10.90;99.90;;;;;;5117778;28;20031;-83
2023/12/29 10:42:05;;;;;;;18.40;16.25;;;10.90;99.90;;;;;;5136405;27;20023;-83
2023/12/29 10:44:30;;;;;;;24.90;15.82;;;11.00;99.90;;;;;;5133645;28;20048;-84
2023/12/29 10:46:56;;;;;;;20.23;14.60;;;11.00;99.90;;;;;;5136378;28;20024;-85
2023/12/29 10:49:22;;;;;;;15.82;13.85;;;11.00;99.90;;;;;;5118116;28;20019;-84
2023/12/29 10:51:48;;;;;;;20.20;15.70;;;11.00;99.90;;;;;;5136796;28;20031;-83
2023/12/29 10:54:23;;;;;;;20.60;14.77;;;11.00;99.90;;;;;;5136273;27;20054;-81
2023/12/29 10:57:10;;;;;;;18.30;13.98;;;11.00;99.90;;;;;;5121881;27;20035;-82
2023/12/29 10:59:36;;;;;;;19.60;15.77;;;11.20;99.90;;;;;;5108100;27;20055;-83
2023/12/29 11:02:03;;;;;;;17.17;14.43;;;11.20;99.90;;;;;;5116023;27;20513;-84
2023/12/29 11:04:29;;;;;;;17.45;13.68;;;11.30;99.90;;;;;;5122088;27;20039;-87
2023/12/29 11:06:54;;;;;;;17.35;14.18;;;11.30;99.90;;;;;;5140313;27;20038;-83
2023/12/29 11:09:31;;;;;;;19.92;14.68;;;11.30;99.90;;;;;;5121702;27;20035;-84
2023/12/29 11:12:01;;;;;;;16.63;13.93;;;11.30;99.90;;;;;;5140673;27;20149;-86
2023/12/29 11:14:30;;;;;;;17.23;15.38;;;11.30;99.90;;;;;;5113832;27;20030;-89
2023/12/29 11:16:56;;;;;;;17.65;13.15;;;11.30;99.90;;;;;;5140732;27;20031;-86
2023/12/29 11:19:22;;;;;;;18.88;14.73;;;11.20;99.90;;;;;;5140319;27;20019;-85
2023/12/29 11:21:54;;;;;;;18.77;14.20;;;11.10;99.90;;;;;;5140101;27;20510;-87
2023/12/29 11:24:20;;;;;;;22.98;14.77;;;11.10;99.90;;;;;;5135766;27;20107;-84
2023/12/29 11:26:46;;;;;;;17.48;13.25;;;11.00;99.90;;;;;;5140742;27;20035;-86
2023/12/29 11:29:12;;;;;;;22.35;16.10;;;11.00;99.90;;;;;;5121571;27;20020;-83
2023/12/29 11:31:39;;;;;;;26.90;16.27;;;11.00;99.90;;;;;;5112703;28;20620;-85
2023/12/29 11:34:26;;;;;;;21.08;16.40;;;11.00;99.90;;;;;;5122669;27;20028;-85
2023/12/29 11:36:59;;;;;;;17.65;15.45;;;11.00;99.90;;;;;;5105463;27;20389;-84
2023/12/29 11:39:38;;;;;;;50.33;31.35;;;11.10;99.90;;;;;;5111554;27;20027;-85
2023/12/29 11:42:22;;;;;;;103.07;52.47;;;11.20;99.90;;;;;;5123638;27;20551;-86
2023/12/29 11:44:50;;;;;;;27.15;17.90;;;11.20;99.90;;;;;;5127036;27;20041;-85
2023/12/29 11:47:36;;;;;;;28.67;18.40;;;11.30;99.90;;;;;;5113574;27;20023;-85
2023/12/29 11:50:03;;;;;;;19.17;15.10;;;11.40;99.90;;;;;;5105671;28;20111;-85
2023/12/29 11:52:36;;;;;;;20.33;14.27;;;11.40;99.90;;;;;;5121320;27;20544;-85
2023/12/29 11:55:13;;;;;;;160.88;76.80;;;11.40;99.90;;;;;;5106385;27;20449;-81
2023/12/29 11:57:42;;;;;;;49.60;29.95;;;11.50;99.90;;;;;;5109485;27;20042;-86
2023/12/29 12:00:08;;;;;;;58.83;38.35;;;11.50;99.90;;;;;;5098458;28;20050;-87
2023/12/29 12:02:35;;;;;;;18.75;12.45;;;11.50;99.90;;;;;;5116878;27;20032;-83
2023/12/29 12:05:00;;;;;;;15.75;13.82;;;11.50;99.90;;;;;;5119805;27;20020;-85
2023/12/29 12:07:27;;;;;;;17.90;14.10;;;11.50;99.90;;;;;;5116420;27;20024;-85
2023/12/29 12:10:33;;;;;;;13.50;11.25;;;11.60;99.90;;;;;;5109296;27;20105;-85
2023/12/29 12:12:59;;;;;;;17.13;10.40;;;11.70;99.90;;;;;;5116373;27;20470;-84
2023/12/29 12:15:30;;;;;;;15.77;11.68;;;11.90;99.90;;;;;;5112777;28;20020;-85
2023/12/29 12:17:57;;;;;;;14.85;13.27;;;12.00;99.90;;;;;;5126813;27;20084;-82
2023/12/29 12:20:23;;;;;;;12.00;10.27;;;12.20;99.90;;;;;;5128764;27;20026;-85
2023/12/29 12:23:16;;;;;;;13.93;10.30;;;12.20;99.90;;;;;;5107670;28;20023;-87
2023/12/29 12:25:42;;;;;;;13.45;10.30;;;12.20;99.90;;;;;;5115633;27;20027;-85
2023/12/29 12:28:09;;;;;;;11.68;9.60;;;12.20;99.90;;;;;;5114100;27;20570;-85
2023/12/29 12:30:35;;;;;;;13.18;9.43;;;12.20;99.90;;;;;;5114787;27;20033;-83
2023/12/29 12:33:02;;;;;;;16.20;10.43;;;12.10;99.90;;;;;;5131010;27;20050;-80